createdAt,value
2022-10-26T00:01:18.537Z,2.07
2022-10-26T00:03:47.615Z,1.90
2022-10-26T00:06:17.623Z,2.00
2022-10-26T00:08:47.504Z,2.13
2022-10-26T00:11:16.194Z,2.30
2022-10-26T00:13:46.441Z,2.23
2022-10-26T00:16:16.822Z,2.27
2022-10-26T00:18:45.790Z,2.30
2022-10-26T00:21:14.363Z,1.90
2022-10-26T00:23:42.471Z,2.43
2022-10-26T00:26:12.251Z,2.07
2022-10-26T00:28:40.408Z,2.30
2022-10-26T00:31:12.900Z,2.30
2022-10-26T00:33:41.115Z,2.20
2022-10-26T00:36:10.422Z,2.73
2022-10-26T00:38:38.537Z,2.60
2022-10-26T00:41:06.957Z,2.00
2022-10-26T00:43:39.089Z,3.23
2022-10-26T00:46:14.501Z,3.00
2022-10-26T00:48:45.962Z,2.70
2022-10-26T00:51:19.613Z,2.70
2022-10-26T00:53:48.038Z,2.90
2022-10-26T00:56:16.334Z,2.70
2022-10-26T00:58:46.319Z,2.83
2022-10-26T01:01:14.444Z,2.37
2022-10-26T01:03:43.547Z,2.90
2022-10-26T01:06:13.146Z,2.33
2022-10-26T01:08:42.867Z,2.37
2022-10-26T01:11:12.071Z,2.57
2022-10-26T01:13:40.831Z,2.20
2022-10-26T01:16:32.441Z,2.10
2022-10-26T01:19:19.868Z,2.20
2022-10-26T01:21:56.509Z,2.13
2022-10-26T01:24:56.400Z,2.57
2022-10-26T01:27:29.669Z,2.20
2022-10-26T01:30:17.490Z,1.97
2022-10-26T01:32:52.213Z,2.70
2022-10-26T01:35:23.886Z,2.40
2022-10-26T01:38:00.139Z,2.37
2022-10-26T01:40:35.761Z,2.27
2022-10-26T01:43:08.348Z,2.17
2022-10-26T01:45:40.845Z,2.20
2022-10-26T01:48:11.745Z,2.20
2022-10-26T01:50:41.503Z,2.40
2022-10-26T01:53:13.149Z,2.47
2022-10-26T01:55:48.707Z,1.77
2022-10-26T01:59:17.976Z,2.30
2022-10-26T02:02:04.803Z,2.37
2022-10-26T02:04:42.241Z,2.20
2022-10-26T02:07:19.512Z,2.53
2022-10-26T02:09:57.956Z,2.60
2022-10-26T02:12:34.650Z,2.90
2022-10-26T02:15:09.697Z,2.10
2022-10-26T02:17:47.566Z,3.03
2022-10-26T02:20:21.197Z,2.43
2022-10-26T02:22:51.641Z,2.57
2022-10-26T02:25:24.479Z,2.47
2022-10-26T02:27:56.335Z,2.63
2022-10-26T02:30:24.600Z,2.33
2022-10-26T02:32:56.927Z,2.73
2022-10-26T02:35:32.563Z,2.87
2022-10-26T02:38:02.901Z,2.83
2022-10-26T02:40:31.964Z,2.87
2022-10-26T02:43:05.562Z,2.87
2022-10-26T02:45:39.517Z,2.60
2022-10-26T02:48:09.146Z,2.70
2022-10-26T02:50:44.429Z,2.30
2022-10-26T02:53:19.040Z,2.57
2022-10-26T02:55:51.361Z,3.10
2022-10-26T02:58:24.091Z,2.50
2022-10-26T03:06:14.354Z,2.43
2022-10-26T03:08:42.343Z,2.47
2022-10-26T03:11:10.321Z,2.50
2022-10-26T03:13:38.354Z,2.43
2022-10-26T03:16:06.676Z,2.90
2022-10-26T03:18:34.823Z,2.43
2022-10-26T03:21:02.905Z,2.53
2022-10-26T03:23:32.280Z,2.37
2022-10-26T03:26:00.864Z,2.43
2022-10-26T03:28:29.041Z,2.30
2022-10-26T03:30:57.072Z,2.00
2022-10-26T03:33:27.830Z,2.47
2022-10-26T03:35:57.110Z,2.27
2022-10-26T03:38:25.733Z,2.33
2022-10-26T03:40:55.108Z,2.40
2022-10-26T03:43:23.230Z,2.27
2022-10-26T03:45:51.345Z,2.20
2022-10-26T03:48:19.426Z,2.67
2022-10-26T03:50:47.515Z,2.43
2022-10-26T03:53:15.601Z,2.50
2022-10-26T03:55:45.507Z,2.60
2022-10-26T03:58:14.952Z,2.63
2022-10-26T04:00:43.021Z,2.13
2022-10-26T04:03:10.998Z,2.27
2022-10-26T04:05:39.093Z,2.23
2022-10-26T04:08:07.198Z,2.03
2022-10-26T04:10:35.233Z,2.30
2022-10-26T04:13:03.273Z,2.43
2022-10-26T04:15:32.688Z,2.20
2022-10-26T04:18:02.347Z,1.83
2022-10-26T04:20:31.802Z,2.60
2022-10-26T04:23:01.484Z,2.00
2022-10-26T04:25:32.706Z,2.30
2022-10-26T04:28:01.495Z,2.10
2022-10-26T04:30:29.606Z,2.13
2022-10-26T04:32:59.027Z,2.20
2022-10-26T04:35:27.356Z,2.43
2022-10-26T04:37:59.616Z,2.60
2022-10-26T04:40:28.086Z,2.40
2022-10-26T04:42:56.350Z,2.30
2022-10-26T04:45:24.487Z,2.33
2022-10-26T04:48:05.871Z,1.90
2022-10-26T04:50:34.132Z,2.00
2022-10-26T04:53:02.329Z,1.87
2022-10-26T04:55:30.331Z,2.00
2022-10-26T04:58:01.065Z,2.20
2022-10-26T05:00:30.415Z,2.70
2022-10-26T05:03:02.291Z,2.07
2022-10-26T05:05:32.111Z,2.70
2022-10-26T05:08:00.228Z,2.03
2022-10-26T05:10:28.668Z,1.90
2022-10-26T05:12:59.292Z,2.27
2022-10-26T05:15:28.123Z,1.83
2022-10-26T05:17:57.512Z,1.60
2022-10-26T05:20:29.989Z,2.10
2022-10-26T05:22:58.999Z,2.03
2022-10-26T05:25:27.939Z,2.03
2022-10-26T05:27:59.446Z,2.37
2022-10-26T05:30:27.551Z,1.77
2022-10-26T05:32:56.120Z,1.97
2022-10-26T05:35:24.260Z,1.90
2022-10-26T05:37:53.884Z,2.13
2022-10-26T05:40:22.592Z,2.30
2022-10-26T05:42:51.452Z,1.60
2022-10-26T05:45:20.052Z,1.90
2022-10-26T05:47:48.585Z,1.87
2022-10-26T05:50:16.876Z,1.70
2022-10-26T05:52:46.365Z,1.93
2022-10-26T05:55:17.990Z,1.97
2022-10-26T05:57:46.691Z,1.60
2022-10-26T06:00:19.052Z,2.00
2022-10-26T06:03:04.394Z,1.83
2022-10-26T06:05:38.392Z,1.83
2022-10-26T06:08:11.073Z,1.93
2022-10-26T06:10:41.520Z,1.60
2022-10-26T06:13:10.093Z,2.00
2022-10-26T06:15:48.175Z,1.70
2022-10-26T06:18:24.747Z,2.00
2022-10-26T06:21:08.300Z,1.43
2022-10-26T06:23:45.648Z,1.40
2022-10-26T06:26:27.925Z,2.00
2022-10-26T06:29:06.773Z,1.73
2022-10-26T06:31:34.860Z,1.50
2022-10-26T06:34:03.265Z,1.70
2022-10-26T06:36:32.542Z,1.50
2022-10-26T06:39:04.001Z,1.60
2022-10-26T06:41:35.576Z,1.60
2022-10-26T06:44:04.764Z,1.70
2022-10-26T06:46:40.265Z,1.70
2022-10-26T06:49:19.190Z,1.40
2022-10-26T06:51:54.399Z,1.90
2022-10-26T06:54:26.907Z,1.70
2022-10-26T06:56:57.096Z,2.17
2022-10-26T06:59:34.508Z,1.90
2022-10-26T07:02:05.612Z,1.60
2022-10-26T07:04:34.778Z,2.07
2022-10-26T07:07:02.883Z,1.40
2022-10-26T07:09:30.921Z,1.77
2022-10-26T07:12:00.473Z,1.60
2022-10-26T07:14:28.528Z,1.87
2022-10-26T07:16:57.097Z,1.80
2022-10-26T07:19:25.311Z,1.63
2022-10-26T07:21:56.674Z,1.47
2022-10-26T07:24:24.817Z,1.63
2022-10-26T07:26:54.658Z,1.40
2022-10-26T07:29:24.475Z,1.40
2022-10-26T07:34:21.826Z,0.80
2022-10-26T07:36:51.535Z,1.20
2022-10-26T07:39:19.595Z,1.13
2022-10-26T07:41:48.017Z,1.48
2022-10-26T07:44:16.078Z,1.30
2022-10-26T07:46:45.617Z,0.85
2022-10-26T07:49:16.346Z,1.27
2022-10-26T07:51:47.261Z,0.95
2022-10-26T07:54:15.376Z,1.17
2022-10-26T07:56:43.424Z,1.27
2022-10-26T07:59:12.709Z,0.93
2022-10-26T08:01:40.841Z,0.98
2022-10-26T08:04:10.260Z,0.98
2022-10-26T08:06:38.606Z,1.40
2022-10-26T08:09:06.830Z,0.85
2022-10-26T08:11:37.017Z,1.10
2022-10-26T08:14:06.067Z,1.63
2022-10-26T08:16:34.956Z,1.27
2022-10-26T08:19:02.946Z,1.20
2022-10-26T08:21:40.424Z,1.20
2022-10-26T08:24:09.769Z,1.40
2022-10-26T08:26:38.022Z,1.30
2022-10-26T08:29:06.341Z,1.33
2022-10-26T08:31:34.458Z,1.33
2022-10-26T08:34:04.100Z,1.42
2022-10-26T08:36:33.563Z,2.20
2022-10-26T08:39:01.584Z,1.63
2022-10-26T08:41:37.087Z,1.33
2022-10-26T08:44:12.894Z,2.10
2022-10-26T08:46:45.671Z,1.60
2022-10-26T08:49:21.812Z,1.95
2022-10-26T08:51:54.340Z,1.85
2022-10-26T08:54:34.530Z,1.73
2022-10-26T08:57:06.774Z,1.92
2022-10-26T08:59:40.024Z,1.90
2022-10-26T09:02:13.617Z,1.85
2022-10-26T09:04:42.014Z,2.03
2022-10-26T09:07:19.040Z,1.88
2022-10-26T09:09:58.638Z,1.88
2022-10-26T09:12:34.032Z,1.73
2022-10-26T09:15:13.119Z,2.72
2022-10-26T09:17:52.372Z,2.40
2022-10-26T09:20:51.922Z,2.15
2022-10-26T09:23:38.763Z,2.83
2022-10-26T09:26:14.364Z,2.25
2022-10-26T09:28:45.873Z,3.08
2022-10-26T09:31:18.104Z,2.90
2022-10-26T09:33:46.112Z,2.47
2022-10-26T09:36:20.492Z,2.83
2022-10-26T09:38:57.245Z,2.83
2022-10-26T09:41:31.766Z,2.70
2022-10-26T09:44:05.513Z,3.15
2022-10-26T09:46:38.669Z,2.83
2022-10-26T09:49:09.737Z,2.72
2022-10-26T09:51:40.232Z,3.20
2022-10-26T09:54:16.551Z,2.60
2022-10-26T09:56:46.257Z,2.35
2022-10-26T09:59:15.789Z,3.22
2022-10-26T10:01:43.894Z,2.92
2022-10-26T10:04:21.205Z,2.90
2022-10-26T10:06:50.548Z,2.83
2022-10-26T10:09:22.107Z,3.13
2022-10-26T10:11:56.620Z,2.83
2022-10-26T10:14:26.810Z,2.38
2022-10-26T10:16:56.730Z,2.67
2022-10-26T10:19:27.505Z,2.85
2022-10-26T10:22:00.269Z,2.47
2022-10-26T10:24:31.684Z,2.10
2022-10-26T10:27:03.019Z,2.17
2022-10-26T10:29:33.582Z,2.10
2022-10-26T10:32:03.280Z,2.15
2022-10-26T10:34:36.188Z,2.45
2022-10-26T10:37:05.210Z,1.75
2022-10-26T10:39:40.684Z,2.35
2022-10-26T10:42:17.905Z,2.17
2022-10-26T10:44:48.118Z,2.33
2022-10-26T10:47:24.749Z,2.13
2022-10-26T10:49:57.123Z,2.30
2022-10-26T10:52:28.328Z,2.55
2022-10-26T10:55:11.939Z,1.80
2022-10-26T10:57:52.618Z,2.28
2022-10-26T11:00:26.200Z,1.92
2022-10-26T11:03:29.506Z,2.20
2022-10-26T11:06:06.827Z,2.55
2022-10-26T11:08:40.399Z,2.05
2022-10-26T11:11:13.999Z,2.25
2022-10-26T11:13:52.374Z,2.08
2022-10-26T11:16:25.933Z,1.70
2022-10-26T11:18:58.834Z,2.35
2022-10-26T11:21:29.837Z,2.45
2022-10-26T11:31:35.992Z,1.70
2022-10-26T11:34:17.707Z,2.25
2022-10-26T11:36:50.405Z,2.05
2022-10-26T11:39:26.742Z,2.17
2022-10-26T11:42:02.156Z,1.88
2022-10-26T11:44:34.542Z,2.28
2022-10-26T11:47:08.411Z,2.00
2022-10-26T11:49:43.389Z,2.55
2022-10-26T11:52:17.921Z,1.83
2022-10-26T11:54:49.591Z,2.40
2022-10-26T12:08:52.783Z,1.75
2022-10-26T12:11:33.771Z,1.88
2022-10-26T12:14:06.506Z,2.33
2022-10-26T12:16:46.195Z,2.08
2022-10-26T12:19:19.823Z,2.20
2022-10-26T12:21:50.086Z,2.13
2022-10-26T12:24:33.647Z,2.10
2022-10-26T12:27:03.275Z,2.10
2022-10-26T12:49:32.269Z,2.10
2022-10-26T12:54:44.908Z,2.80
2022-10-26T12:57:24.626Z,1.98
2022-10-26T12:59:59.209Z,3.10
2022-10-26T13:02:48.734Z,2.63
2022-10-26T13:05:50.227Z,2.35
2022-10-26T13:08:20.073Z,2.90
2022-10-26T13:11:03.469Z,2.53
2022-10-26T13:13:34.319Z,3.00
2022-10-26T13:16:03.979Z,2.72
2022-10-26T13:18:32.070Z,2.83
2022-10-26T13:21:07.568Z,2.67
2022-10-26T13:23:39.664Z,2.60
2022-10-26T13:26:12.088Z,2.42
2022-10-26T13:28:51.762Z,2.28
2022-10-26T13:31:54.895Z,2.47
2022-10-26T13:34:25.310Z,2.70
2022-10-26T13:37:00.617Z,2.30
2022-10-26T13:39:33.802Z,2.63
2022-10-26T13:42:03.062Z,2.75
2022-10-26T13:44:36.401Z,2.30
2022-10-26T13:47:09.506Z,2.10
2022-10-26T13:49:41.228Z,2.05
2022-10-26T13:52:17.065Z,2.42
2022-10-26T13:54:50.157Z,2.88
2022-10-26T13:57:22.214Z,1.92
2022-10-26T13:59:50.451Z,2.30
2022-10-26T14:02:23.690Z,2.00
2022-10-26T14:04:55.125Z,1.98
2022-10-26T14:07:29.827Z,1.98
2022-10-26T14:09:59.776Z,1.40
2022-10-26T14:12:31.955Z,2.03
2022-10-26T14:19:36.266Z,1.40
2022-10-26T14:22:05.194Z,1.38
2022-10-26T14:24:48.373Z,1.30
2022-10-26T14:27:19.502Z,1.50
2022-10-26T14:30:03.761Z,1.77
2022-10-26T14:32:36.742Z,1.35
2022-10-26T14:47:38.069Z,1.30
2022-10-26T14:50:06.694Z,1.42
2022-10-26T14:52:37.637Z,1.33
2022-10-26T14:55:14.676Z,1.17
2022-10-26T14:57:44.987Z,1.08
2022-10-26T15:00:17.458Z,1.13
2022-10-26T15:02:49.223Z,1.00
2022-10-26T15:05:26.365Z,1.10
2022-10-26T15:07:54.881Z,0.90
2022-10-26T15:10:47.922Z,1.13
2022-10-26T15:13:28.053Z,1.30
2022-10-26T15:15:58.785Z,1.20
2022-10-26T15:18:31.279Z,1.10
2022-10-26T15:21:00.115Z,1.35
2022-10-26T15:23:30.633Z,1.23
2022-10-26T15:26:01.386Z,1.35
2022-10-26T15:29:07.953Z,0.90
2022-10-26T15:31:36.309Z,1.08
2022-10-26T15:34:24.445Z,1.17
2022-10-26T15:36:52.535Z,1.20
2022-10-26T15:39:20.614Z,0.85
2022-10-26T15:41:50.282Z,1.83
2022-10-26T15:44:22.440Z,1.02
2022-10-26T15:46:51.057Z,1.20
2022-10-26T15:49:21.859Z,1.30
2022-10-26T15:51:50.491Z,1.10
2022-10-26T15:54:18.572Z,1.20
2022-10-26T15:56:47.833Z,1.60
2022-10-26T15:59:18.583Z,1.13
2022-10-26T16:01:46.830Z,1.27
2022-10-26T16:04:15.120Z,1.83
2022-10-26T16:06:46.283Z,1.15
2022-10-26T16:09:17.040Z,1.30
2022-10-26T16:11:45.905Z,1.90
2022-10-26T16:14:14.042Z,1.25
2022-10-26T16:16:42.153Z,1.15
2022-10-26T16:19:29.901Z,1.70
2022-10-26T16:22:00.217Z,1.23
2022-10-26T16:24:28.889Z,1.65
2022-10-26T16:26:57.480Z,0.98
2022-10-26T16:29:25.572Z,1.23
2022-10-26T16:31:53.683Z,1.02
2022-10-26T16:34:21.718Z,1.33
2022-10-26T16:36:49.842Z,1.60
2022-10-26T16:39:19.310Z,1.58
2022-10-26T16:41:50.441Z,1.67
2022-10-26T16:44:18.525Z,2.40
2022-10-26T16:46:46.575Z,1.63
2022-10-26T16:49:14.646Z,1.35
2022-10-26T16:51:42.739Z,1.73
2022-10-26T16:54:10.812Z,1.90
2022-10-26T16:56:42.177Z,1.52
2022-10-26T16:59:10.810Z,1.42
2022-10-26T17:01:39.062Z,2.28
2022-10-26T17:04:07.356Z,1.42
2022-10-26T17:06:35.494Z,1.73
2022-10-26T17:09:03.606Z,2.28
2022-10-26T17:11:31.742Z,1.45
2022-10-26T17:14:01.129Z,1.52
2022-10-26T17:16:29.312Z,2.28
2022-10-26T17:18:57.376Z,2.65
2022-10-26T17:21:31.070Z,1.33
2022-10-26T17:23:59.745Z,2.25
2022-10-26T17:26:28.584Z,1.33
2022-10-26T17:28:58.156Z,1.87
2022-10-26T17:31:29.008Z,2.25
2022-10-26T17:33:58.073Z,1.77
2022-10-26T17:36:27.825Z,1.33
2022-10-26T17:39:00.916Z,2.28
2022-10-26T17:41:29.241Z,1.70
2022-10-26T17:43:57.391Z,1.80
2022-10-26T17:46:27.479Z,1.92
2022-10-26T17:48:58.150Z,1.63
2022-10-26T17:51:27.555Z,2.43
2022-10-26T17:53:57.117Z,1.73
2022-10-26T17:56:27.222Z,1.70
2022-10-26T17:58:56.566Z,1.80
2022-10-26T18:01:24.703Z,1.97
2022-10-26T18:03:53.462Z,2.20
2022-10-26T18:06:23.520Z,2.00
2022-10-26T18:08:51.958Z,2.33
2022-10-26T18:11:26.452Z,2.00
2022-10-26T18:13:55.698Z,1.90
2022-10-26T18:16:25.289Z,2.13
2022-10-26T18:19:00.068Z,1.70
2022-10-26T18:21:31.539Z,2.10
2022-10-26T18:23:59.980Z,1.90
2022-10-26T18:26:29.774Z,2.33
2022-10-26T18:28:58.681Z,1.57
2022-10-26T18:31:27.593Z,2.55
2022-10-26T18:33:57.317Z,2.33
2022-10-26T18:36:26.258Z,2.13
2022-10-26T18:38:56.259Z,1.87
2022-10-26T18:41:25.481Z,2.07
2022-10-26T18:43:55.126Z,2.17
2022-10-26T18:46:25.328Z,2.23
2022-10-26T18:48:54.214Z,2.30
2022-10-26T18:51:25.387Z,2.50
2022-10-26T18:53:55.065Z,2.97
2022-10-26T18:56:24.120Z,3.50
2022-10-26T18:58:53.771Z,2.50
2022-10-26T19:01:23.862Z,2.10
2022-10-26T19:03:55.567Z,2.23
2022-10-26T19:06:25.976Z,2.87
2022-10-26T19:08:56.205Z,2.60
2022-10-26T19:11:26.015Z,2.57
2022-10-26T19:13:55.274Z,1.93
2022-10-26T19:16:45.091Z,2.23
2022-10-26T19:19:13.474Z,2.30
2022-10-26T19:21:41.648Z,2.80
2022-10-26T19:24:13.977Z,2.57
2022-10-26T19:26:43.719Z,2.70
2022-10-26T19:29:59.097Z,3.23
2022-10-26T19:32:28.791Z,2.20
2022-10-26T19:34:56.811Z,2.50
2022-10-26T19:37:28.280Z,2.77
2022-10-26T19:39:58.013Z,2.80
2022-10-26T19:42:26.086Z,2.67
2022-10-26T19:44:54.096Z,2.33
2022-10-26T19:47:22.143Z,2.57
2022-10-26T19:49:50.227Z,2.30
2022-10-26T19:54:51.267Z,3.60
2022-10-26T19:57:20.664Z,3.00
2022-10-26T19:59:48.675Z,3.23
2022-10-26T20:02:16.733Z,2.80
2022-10-26T20:04:45.340Z,2.60
2022-10-26T20:07:14.480Z,2.97
2022-10-26T20:09:42.805Z,3.37
2022-10-26T20:12:12.692Z,3.30
2022-10-26T20:14:42.285Z,3.30
2022-10-26T20:17:10.347Z,3.23
2022-10-26T20:19:38.444Z,3.00
2022-10-26T20:22:06.460Z,3.17
2022-10-26T20:24:34.440Z,3.60
2022-10-26T20:27:02.577Z,3.07
2022-10-26T20:29:30.648Z,3.30
2022-10-26T20:32:00.144Z,3.43
2022-10-26T20:37:01.715Z,3.73
2022-10-26T20:39:30.307Z,2.90
2022-10-26T20:41:58.959Z,3.60
2022-10-26T20:44:32.630Z,4.00
2022-10-26T20:47:02.650Z,4.00
2022-10-26T20:49:31.311Z,3.93
2022-10-26T20:52:21.674Z,4.33
2022-10-26T20:54:55.221Z,3.37
2022-10-26T20:57:30.089Z,3.73
2022-10-26T21:00:04.263Z,3.90
2022-10-26T21:02:34.004Z,4.10
2022-10-26T21:05:02.045Z,4.00
2022-10-26T21:07:30.148Z,4.30
2022-10-26T21:09:58.189Z,4.70
2022-10-26T21:12:26.247Z,3.63
2022-10-26T21:14:54.275Z,4.07
2022-10-26T21:17:22.323Z,3.83
2022-10-26T21:19:51.721Z,3.80
2022-10-26T21:22:19.778Z,3.83
2022-10-26T21:24:47.792Z,4.27
2022-10-26T21:27:15.846Z,3.57
2022-10-26T21:29:43.834Z,3.93
2022-10-26T21:32:14.259Z,4.00
2022-10-26T21:34:42.327Z,3.97
2022-10-26T21:37:11.749Z,3.63
2022-10-26T21:39:39.779Z,3.50
2022-10-26T21:42:07.815Z,4.00
2022-10-26T21:44:43.078Z,3.90
2022-10-26T21:47:11.450Z,3.07
2022-10-26T21:52:14.148Z,4.20
2022-10-26T21:54:42.165Z,3.90
2022-10-26T21:57:10.180Z,4.53
2022-10-26T21:59:38.220Z,3.73
2022-10-26T22:02:06.379Z,3.90
2022-10-26T22:04:34.680Z,3.70
2022-10-26T22:07:02.715Z,3.87
2022-10-26T22:09:37.336Z,4.00
2022-10-26T22:12:13.068Z,3.23
2022-10-26T22:14:41.202Z,3.67
2022-10-26T22:17:09.326Z,3.63
2022-10-26T22:19:37.433Z,3.57
2022-10-26T22:22:05.480Z,3.77
2022-10-26T22:24:34.903Z,3.53
2022-10-26T22:27:02.974Z,3.80
2022-10-26T22:29:30.998Z,4.00
2022-10-26T22:31:59.023Z,3.63
2022-10-26T22:49:52.492Z,3.70
2022-10-26T22:52:22.511Z,3.73
2022-10-26T22:54:50.517Z,3.63
2022-10-26T22:57:18.529Z,3.63
2022-10-26T22:59:46.591Z,3.87
2022-10-26T23:02:14.743Z,3.80
2022-10-26T23:04:42.968Z,3.60
2022-10-26T23:07:12.435Z,4.13
2022-10-26T23:09:40.475Z,3.43
2022-10-26T23:12:08.675Z,3.53
2022-10-26T23:14:36.695Z,3.90
2022-10-26T23:17:06.220Z,4.00
2022-10-26T23:19:34.249Z,3.70
2022-10-26T23:22:02.316Z,4.50
2022-10-26T23:24:31.735Z,4.10
2022-10-26T23:26:59.739Z,4.07
2022-10-26T23:29:27.796Z,4.50
2022-10-26T23:31:55.825Z,3.37
2022-10-26T23:34:23.872Z,4.17
2022-10-26T23:36:52.110Z,4.23
2022-10-26T23:39:20.140Z,3.70
2022-10-26T23:41:49.549Z,4.13
2022-10-26T23:44:17.589Z,3.57
2022-10-26T23:46:45.656Z,4.20
2022-10-26T23:49:13.649Z,4.33
2022-10-26T23:51:41.671Z,4.80
2022-10-26T23:54:10.007Z,5.27
2022-10-26T23:56:38.033Z,4.83
2022-10-26T23:59:08.731Z,4.50
